createdAt,value
2023-05-25T00:01:37.930Z,7.18
2023-05-25T00:04:05.335Z,5.57
2023-05-25T00:06:33.449Z,4.20
2023-05-25T00:09:00.685Z,4.95
2023-05-25T00:11:27.868Z,5.85
2023-05-25T00:13:55.089Z,4.50
2023-05-25T00:16:22.487Z,4.22
2023-05-25T00:18:49.752Z,3.95
2023-05-25T00:21:17.020Z,6.82
2023-05-25T00:23:44.160Z,4.20
2023-05-25T00:26:11.361Z,4.75
2023-05-25T00:28:38.549Z,5.05
2023-05-25T00:31:05.780Z,4.75
2023-05-25T00:33:33.027Z,3.97
2023-05-25T00:36:00.226Z,5.25
2023-05-25T00:38:27.441Z,4.13
2023-05-25T00:41:00.118Z,4.53
2023-05-25T00:43:27.340Z,3.88
2023-05-25T00:45:54.960Z,5.70
2023-05-25T00:48:22.677Z,4.40
2023-05-25T00:50:50.249Z,5.15
2023-05-25T00:53:17.367Z,6.68
2023-05-25T00:55:47.482Z,4.35
2023-05-25T00:58:17.683Z,4.10
2023-05-25T01:00:49.747Z,4.45
2023-05-25T01:03:21.849Z,3.97
2023-05-25T01:05:50.143Z,4.60
2023-05-25T01:08:18.067Z,5.00
2023-05-25T01:10:46.660Z,3.90
2023-05-25T01:13:14.108Z,3.60
2023-05-25T01:15:42.129Z,4.38
2023-05-25T01:18:09.589Z,3.67
2023-05-25T01:20:36.825Z,4.07
2023-05-25T01:23:07.688Z,3.80
2023-05-25T01:25:40.114Z,3.30
2023-05-25T01:28:13.134Z,3.45
2023-05-25T01:30:42.232Z,4.22
2023-05-25T01:33:11.379Z,4.43
2023-05-25T01:35:39.554Z,4.60
2023-05-25T01:38:07.093Z,4.05
2023-05-25T01:40:34.302Z,3.95
2023-05-25T01:43:01.502Z,3.58
2023-05-25T01:45:29.137Z,4.13
2023-05-25T01:47:56.906Z,4.03
2023-05-25T01:50:42.987Z,3.63
2023-05-25T01:55:40.173Z,5.00
2023-05-25T01:58:09.129Z,3.35
2023-05-25T02:00:36.314Z,5.20
2023-05-25T02:03:04.412Z,3.90
2023-05-25T02:05:31.798Z,3.53
2023-05-25T02:07:58.956Z,3.70
2023-05-25T02:10:26.172Z,4.38
2023-05-25T02:12:53.584Z,3.80
2023-05-25T02:15:22.152Z,3.53
2023-05-25T02:17:49.415Z,5.32
2023-05-25T02:20:16.694Z,3.55
2023-05-25T02:22:43.905Z,3.40
2023-05-25T02:25:11.108Z,3.97
2023-05-25T02:27:38.356Z,3.90
2023-05-25T02:30:06.294Z,3.55
2023-05-25T02:32:33.806Z,10.07
2023-05-25T02:35:01.275Z,4.10
2023-05-25T02:37:28.475Z,3.35
2023-05-25T02:39:55.582Z,3.60
2023-05-25T02:42:22.753Z,3.78
2023-05-25T02:44:49.963Z,3.40
2023-05-25T02:47:18.018Z,3.58
2023-05-25T02:49:45.702Z,3.40
2023-05-25T02:52:12.891Z,3.65
2023-05-25T02:54:40.453Z,4.25
2023-05-25T02:57:08.372Z,3.38
2023-05-25T02:59:35.670Z,3.50
2023-05-25T03:02:03.395Z,3.50
2023-05-25T03:04:34.595Z,3.80
2023-05-25T03:07:02.325Z,4.15
2023-05-25T03:09:30.119Z,3.97
2023-05-25T03:11:57.611Z,3.42
2023-05-25T03:14:24.849Z,6.10
2023-05-25T03:16:53.937Z,4.65
2023-05-25T03:19:22.016Z,4.38
2023-05-25T03:21:49.185Z,3.47
2023-05-25T03:24:16.511Z,3.20
2023-05-25T03:26:43.728Z,4.07
2023-05-25T03:29:13.721Z,3.55
2023-05-25T03:31:41.016Z,5.47
2023-05-25T03:34:08.198Z,3.33
2023-05-25T03:36:37.493Z,3.80
2023-05-25T03:39:04.787Z,3.80
2023-05-25T03:41:31.997Z,3.65
2023-05-25T03:43:59.224Z,4.18
2023-05-25T03:46:26.439Z,4.22
2023-05-25T03:48:53.633Z,4.05
2023-05-25T03:51:20.865Z,3.78
2023-05-25T03:53:48.058Z,4.05
2023-05-25T03:56:15.592Z,3.30
2023-05-25T03:58:42.700Z,4.90
2023-05-25T04:01:10.587Z,3.47
2023-05-25T04:03:38.019Z,3.33
2023-05-25T04:06:05.558Z,3.92
2023-05-25T04:08:34.063Z,3.55
2023-05-25T04:11:01.284Z,4.00
2023-05-25T04:13:28.434Z,3.30
2023-05-25T04:15:55.871Z,3.97
2023-05-25T04:18:23.059Z,3.70
2023-05-25T04:20:50.408Z,3.25
2023-05-25T04:23:19.586Z,3.33
2023-05-25T04:25:47.328Z,3.42
2023-05-25T04:28:14.713Z,4.20
2023-05-25T04:30:41.822Z,3.38
2023-05-25T04:33:11.700Z,3.75
2023-05-25T04:35:40.765Z,3.97
2023-05-25T04:38:07.947Z,4.88
2023-05-25T04:40:35.589Z,3.97
2023-05-25T04:43:05.140Z,3.38
2023-05-25T04:45:33.341Z,6.78
2023-05-25T04:48:01.942Z,3.20
2023-05-25T04:50:29.604Z,4.03
2023-05-25T04:52:56.728Z,3.38
2023-05-25T04:55:23.903Z,3.85
2023-05-25T04:57:53.227Z,5.22
2023-05-25T05:00:20.592Z,3.42
2023-05-25T05:02:47.838Z,3.63
2023-05-25T05:05:15.151Z,3.92
2023-05-25T05:07:42.308Z,3.28
2023-05-25T05:10:09.701Z,3.60
2023-05-25T05:12:36.982Z,3.15
2023-05-25T05:15:04.363Z,2.90
2023-05-25T05:17:31.588Z,3.00
2023-05-25T05:19:58.868Z,3.40
2023-05-25T05:22:27.211Z,3.88
2023-05-25T05:24:54.522Z,3.33
2023-05-25T05:27:21.711Z,3.80
2023-05-25T05:29:48.998Z,3.22
2023-05-25T05:32:16.144Z,3.50
2023-05-25T05:34:43.366Z,4.28
2023-05-25T05:37:11.044Z,3.58
2023-05-25T05:39:38.288Z,4.28
2023-05-25T05:42:05.691Z,3.08
2023-05-25T05:44:32.879Z,3.22
2023-05-25T05:47:01.063Z,3.75
2023-05-25T05:49:29.206Z,3.58
2023-05-25T05:51:56.452Z,3.45
2023-05-25T05:54:23.956Z,3.78
2023-05-25T05:56:54.227Z,3.65
2023-05-25T05:59:22.162Z,3.85
2023-05-25T06:01:49.542Z,3.67
2023-05-25T06:04:16.827Z,3.90
2023-05-25T06:06:45.380Z,3.42
2023-05-25T06:09:12.843Z,3.58
2023-05-25T06:11:40.228Z,5.32
2023-05-25T06:14:07.530Z,3.65
2023-05-25T06:16:34.800Z,3.55
2023-05-25T06:19:02.028Z,3.30
2023-05-25T06:21:29.190Z,2.95
2023-05-25T06:23:59.355Z,11.48
2023-05-25T06:26:27.302Z,3.70
2023-05-25T06:28:54.520Z,4.25
2023-05-25T06:31:22.184Z,6.40
2023-05-25T06:33:49.401Z,3.92
2023-05-25T06:36:16.745Z,3.88
2023-05-25T06:38:43.938Z,3.20
2023-05-25T06:41:15.026Z,3.03
2023-05-25T06:43:42.606Z,3.50
2023-05-25T06:46:10.512Z,3.30
2023-05-25T06:48:40.218Z,3.03
2023-05-25T06:51:07.354Z,5.13
2023-05-25T06:53:34.550Z,5.22
2023-05-25T06:56:01.688Z,5.10
2023-05-25T06:58:31.271Z,4.53
2023-05-25T07:01:00.360Z,6.00
2023-05-25T07:03:27.592Z,4.47
2023-05-25T07:05:54.916Z,4.20
2023-05-25T07:08:22.091Z,4.05
2023-05-25T07:10:50.372Z,5.30
2023-05-25T07:13:17.754Z,5.95
2023-05-25T07:15:45.196Z,5.85
2023-05-25T07:18:12.939Z,7.10
2023-05-25T07:20:42.226Z,6.97
2023-05-25T07:23:10.333Z,7.35
2023-05-25T07:25:38.917Z,5.90
2023-05-25T07:28:06.296Z,6.72
2023-05-25T07:30:33.453Z,5.15
2023-05-25T07:33:01.259Z,4.38
2023-05-25T07:35:28.492Z,5.78
2023-05-25T07:38:02.706Z,5.30
2023-05-25T07:40:29.861Z,6.10
2023-05-25T07:42:57.408Z,6.45
2023-05-25T07:45:24.765Z,6.03
2023-05-25T07:47:51.954Z,4.72
2023-05-25T07:50:22.022Z,3.80
2023-05-25T07:52:49.189Z,4.60
2023-05-25T07:55:16.433Z,4.88
2023-05-25T07:57:43.874Z,4.93
2023-05-25T08:00:11.340Z,4.30
2023-05-25T08:02:38.941Z,5.47
2023-05-25T08:05:06.643Z,5.97
2023-05-25T08:07:35.259Z,5.78
2023-05-25T08:10:02.619Z,5.40
2023-05-25T08:12:46.682Z,5.10
2023-05-25T08:15:14.699Z,5.95
2023-05-25T08:17:42.018Z,5.15
2023-05-25T08:20:10.333Z,6.18
2023-05-25T08:22:37.566Z,5.28
2023-05-25T08:25:05.369Z,5.35
2023-05-25T08:27:35.466Z,5.50
2023-05-25T08:30:03.496Z,5.43
2023-05-25T08:32:30.796Z,5.47
2023-05-25T08:34:58.078Z,5.10
2023-05-25T08:37:26.329Z,5.30
2023-05-25T08:39:53.548Z,5.68
2023-05-25T08:42:21.018Z,7.32
2023-05-25T08:44:48.352Z,5.63
2023-05-25T08:47:17.284Z,8.77
2023-05-25T08:49:45.492Z,6.63
2023-05-25T08:52:14.914Z,5.10
2023-05-25T08:54:44.294Z,4.82
2023-05-25T08:57:16.958Z,4.22
2023-05-25T08:59:59.249Z,4.65
2023-05-25T09:02:39.134Z,4.90
2023-05-25T09:05:06.907Z,4.20
2023-05-25T09:07:34.325Z,4.68
2023-05-25T09:10:01.659Z,5.20
2023-05-25T09:12:32.278Z,4.63
2023-05-25T09:14:59.846Z,3.92
2023-05-25T09:17:27.298Z,4.20
2023-05-25T09:19:55.054Z,4.75
2023-05-25T09:22:22.519Z,4.70
2023-05-25T09:24:50.086Z,4.82
2023-05-25T09:27:18.501Z,5.20
2023-05-25T09:29:47.765Z,4.55
2023-05-25T09:32:15.229Z,4.60
2023-05-25T09:34:44.067Z,6.15
2023-05-25T09:37:16.263Z,5.90
2023-05-25T09:39:44.378Z,6.10
2023-05-25T09:42:12.219Z,7.18
2023-05-25T09:44:40.059Z,8.63
2023-05-25T09:47:07.457Z,8.13
2023-05-25T09:49:34.748Z,8.68
2023-05-25T09:52:01.993Z,6.97
2023-05-25T09:54:30.231Z,5.82
2023-05-25T09:56:57.472Z,6.55
2023-05-25T09:59:24.711Z,9.23
2023-05-25T10:01:53.604Z,7.32
2023-05-25T10:04:21.239Z,4.80
2023-05-25T10:06:50.073Z,6.47
2023-05-25T10:09:19.007Z,5.30
2023-05-25T10:11:46.260Z,3.80
2023-05-25T10:14:16.244Z,6.72
2023-05-25T10:16:46.556Z,7.47
2023-05-25T10:19:18.350Z,5.85
2023-05-25T10:21:50.137Z,3.70
2023-05-25T10:24:25.912Z,4.13
2023-05-25T10:26:55.117Z,4.65
2023-05-25T10:29:24.926Z,5.07
2023-05-25T10:31:52.194Z,5.28
2023-05-25T10:34:20.322Z,4.82
2023-05-25T10:36:48.874Z,5.78
2023-05-25T10:39:17.119Z,5.28
2023-05-25T10:41:45.840Z,5.05
2023-05-25T10:44:13.726Z,4.88
2023-05-25T10:46:41.117Z,4.72
2023-05-25T10:49:08.328Z,5.90
2023-05-25T10:51:43.720Z,5.40
2023-05-25T10:54:15.102Z,4.68
2023-05-25T10:57:02.781Z,4.35
2023-05-25T10:59:29.972Z,4.63
2023-05-25T11:01:57.172Z,4.65
2023-05-25T11:04:24.441Z,4.70
2023-05-25T11:06:51.792Z,5.70
2023-05-25T11:09:26.024Z,4.97
2023-05-25T11:11:55.460Z,6.07
2023-05-25T11:14:29.907Z,6.28
2023-05-25T11:17:16.532Z,5.00
2023-05-25T11:19:44.999Z,4.63
2023-05-25T11:22:23.005Z,4.40
2023-05-25T11:24:51.170Z,5.07
2023-05-25T11:27:29.357Z,5.68
2023-05-25T11:29:57.951Z,5.50
2023-05-25T11:32:26.322Z,4.93
2023-05-25T11:34:54.349Z,4.57
2023-05-25T11:37:22.332Z,4.68
2023-05-25T11:39:50.346Z,4.72
2023-05-25T11:42:17.726Z,5.13
2023-05-25T11:44:45.180Z,4.65
2023-05-25T11:47:18.973Z,4.95
2023-05-25T11:49:47.383Z,4.50
2023-05-25T11:52:15.278Z,6.38
2023-05-25T11:54:42.735Z,5.10
2023-05-25T11:57:27.089Z,5.30
2023-05-25T11:59:55.661Z,4.80
2023-05-25T12:02:23.361Z,5.43
2023-05-25T12:04:54.326Z,5.15
2023-05-25T12:07:21.778Z,5.00
2023-05-25T12:09:49.160Z,7.82
2023-05-25T12:12:16.351Z,4.60
2023-05-25T12:14:47.630Z,5.70
2023-05-25T12:17:14.884Z,5.45
2023-05-25T12:19:42.175Z,6.25
2023-05-25T12:22:09.914Z,6.00
2023-05-25T12:24:37.177Z,5.35
2023-05-25T12:27:06.159Z,4.53
2023-05-25T12:29:33.355Z,5.55
2023-05-25T12:32:04.580Z,5.72
2023-05-25T12:34:31.917Z,5.57
2023-05-25T12:36:59.138Z,5.20
2023-05-25T12:39:32.370Z,4.88
2023-05-25T12:42:00.218Z,5.32
2023-05-25T12:44:31.230Z,4.68
2023-05-25T12:47:10.829Z,4.85
2023-05-25T12:49:38.509Z,5.03
2023-05-25T12:52:06.208Z,4.80
2023-05-25T12:54:34.617Z,5.78
2023-05-25T12:57:02.654Z,5.18
2023-05-25T12:59:31.388Z,4.85
2023-05-25T13:01:58.668Z,4.63
2023-05-25T13:04:25.981Z,4.97
2023-05-25T13:06:54.064Z,4.72
2023-05-25T13:09:21.754Z,4.93
2023-05-25T13:11:48.917Z,4.80
2023-05-25T13:14:16.199Z,4.90
2023-05-25T13:16:43.436Z,4.53
2023-05-25T13:19:10.557Z,6.95
2023-05-25T13:21:37.870Z,4.00
2023-05-25T13:24:05.691Z,5.28
2023-05-25T13:26:34.151Z,4.78
2023-05-25T13:29:03.895Z,5.20
2023-05-25T13:31:31.239Z,4.85
2023-05-25T13:33:59.095Z,4.25
2023-05-25T13:36:26.629Z,4.50
2023-05-25T13:38:53.919Z,4.60
2023-05-25T13:41:21.247Z,4.53
2023-05-25T13:43:48.860Z,4.22
2023-05-25T13:46:30.051Z,4.63
2023-05-25T13:49:01.055Z,4.45
2023-05-25T13:51:28.254Z,4.65
2023-05-25T13:53:55.441Z,4.97
2023-05-25T13:56:23.316Z,5.38
2023-05-25T13:58:50.537Z,4.82
2023-05-25T14:01:17.790Z,5.15
2023-05-25T14:03:45.767Z,5.13
2023-05-25T14:06:13.083Z,4.50
2023-05-25T14:08:40.342Z,5.85
2023-05-25T14:11:07.516Z,5.20
2023-05-25T14:13:36.510Z,4.43
2023-05-25T14:16:04.094Z,5.57
2023-05-25T14:18:31.325Z,4.38
2023-05-25T14:20:58.564Z,4.43
2023-05-25T14:23:25.848Z,4.88
2023-05-25T14:25:53.381Z,4.88
2023-05-25T14:28:20.660Z,4.47
2023-05-25T14:30:47.851Z,4.78
2023-05-25T14:33:17.214Z,4.28
2023-05-25T14:35:44.738Z,4.75
2023-05-25T14:38:12.116Z,6.68
2023-05-25T14:40:39.346Z,4.72
2023-05-25T14:43:06.581Z,8.30
2023-05-25T14:45:33.807Z,4.93
2023-05-25T14:48:15.425Z,4.78
2023-05-25T14:50:44.468Z,6.95
2023-05-25T14:53:11.935Z,6.85
2023-05-25T14:55:39.200Z,6.85
2023-05-25T14:58:06.363Z,6.57
2023-05-25T15:00:33.828Z,4.88
2023-05-25T15:03:01.115Z,4.65
2023-05-25T15:05:28.389Z,4.38
2023-05-25T15:07:56.184Z,4.60
2023-05-25T15:10:23.396Z,8.07
2023-05-25T15:12:50.686Z,5.60
2023-05-25T15:15:17.884Z,4.35
2023-05-25T15:17:45.167Z,4.85
2023-05-25T15:20:12.466Z,4.97
2023-05-25T15:22:39.651Z,5.15
2023-05-25T15:25:06.943Z,5.40
2023-05-25T15:27:34.870Z,6.05
2023-05-25T15:30:02.096Z,5.80
2023-05-25T15:32:29.299Z,5.05
2023-05-25T15:34:56.475Z,4.35
2023-05-25T15:37:23.663Z,4.90
2023-05-25T15:39:51.159Z,6.15
2023-05-25T15:42:18.976Z,4.68
2023-05-25T15:44:47.180Z,5.18
2023-05-25T15:47:14.359Z,5.10
2023-05-25T15:49:41.598Z,6.03
2023-05-25T15:52:08.807Z,4.88
2023-05-25T15:54:35.963Z,5.18
2023-05-25T15:57:03.177Z,4.80
2023-05-25T15:59:30.391Z,5.72
2023-05-25T16:01:57.582Z,4.68
2023-05-25T16:04:24.873Z,5.10
2023-05-25T16:06:52.101Z,4.63
2023-05-25T16:09:19.268Z,4.70
2023-05-25T16:11:46.449Z,4.68
2023-05-25T16:14:13.649Z,6.00
2023-05-25T16:16:40.843Z,5.68
2023-05-25T16:19:08.120Z,3.95
2023-05-25T16:21:37.680Z,5.70
2023-05-25T16:24:05.819Z,5.43
2023-05-25T16:26:33.210Z,6.60
2023-05-25T16:29:00.468Z,4.78
2023-05-25T16:31:28.051Z,10.85
2023-05-25T16:33:55.232Z,4.90
2023-05-25T16:36:23.172Z,6.82
2023-05-25T16:38:51.382Z,6.00
2023-05-25T16:41:18.585Z,5.72
2023-05-25T16:43:45.801Z,4.40
2023-05-25T16:46:13.089Z,5.28
2023-05-25T16:48:40.457Z,5.20
2023-05-25T16:51:07.757Z,5.82
2023-05-25T16:53:34.988Z,5.50
2023-05-25T16:56:02.166Z,4.95
2023-05-25T16:58:29.369Z,5.57
2023-05-25T17:00:56.536Z,6.00
2023-05-25T17:03:23.847Z,5.05
2023-05-25T17:05:53.745Z,7.28
2023-05-25T17:08:21.073Z,5.85
2023-05-25T17:10:49.030Z,4.70
2023-05-25T17:13:16.446Z,5.90
2023-05-25T17:15:43.862Z,8.02
2023-05-25T17:18:11.419Z,5.82
2023-05-25T17:20:38.713Z,5.95
2023-05-25T17:23:06.179Z,5.00
2023-05-25T17:25:34.308Z,6.25
2023-05-25T17:28:01.638Z,6.03
2023-05-25T17:30:28.819Z,5.93
2023-05-25T17:33:01.292Z,6.43
2023-05-25T17:35:29.439Z,7.50
2023-05-25T17:37:56.907Z,8.85
2023-05-25T17:40:24.161Z,9.60
2023-05-25T17:42:51.337Z,7.90
2023-05-25T17:45:18.567Z,7.30
2023-05-25T17:47:45.867Z,7.40
2023-05-25T17:50:13.138Z,9.15
2023-05-25T17:52:40.891Z,9.35
2023-05-25T17:55:08.320Z,19.88
2023-05-25T17:57:35.633Z,10.38
2023-05-25T18:00:02.954Z,9.80
2023-05-25T18:02:30.322Z,18.42
2023-05-25T18:04:57.770Z,18.92
2023-05-25T18:07:25.307Z,14.95
2023-05-25T18:09:52.527Z,12.75
2023-05-25T18:12:19.709Z,12.55
2023-05-25T18:14:46.822Z,13.85
2023-05-25T18:17:14.265Z,12.20
2023-05-25T18:19:41.646Z,11.30
2023-05-25T18:22:08.852Z,12.10
2023-05-25T18:24:36.234Z,12.80
2023-05-25T18:27:04.782Z,14.02
2023-05-25T18:29:31.995Z,13.50
2023-05-25T18:31:59.174Z,10.13
2023-05-25T18:34:26.540Z,9.60
2023-05-25T18:36:53.732Z,10.40
2023-05-25T18:39:20.990Z,8.80
2023-05-25T18:41:48.149Z,9.93
2023-05-25T18:44:15.302Z,9.57
2023-05-25T18:46:44.409Z,12.10
2023-05-25T18:49:11.649Z,8.70
2023-05-25T18:51:38.856Z,10.73
2023-05-25T18:54:06.065Z,9.52
2023-05-25T18:56:33.284Z,6.72
2023-05-25T18:59:00.647Z,6.75
2023-05-25T19:01:27.863Z,8.82
2023-05-25T19:03:58.087Z,8.38
2023-05-25T19:06:27.071Z,6.53
2023-05-25T19:08:55.256Z,6.72
2023-05-25T19:11:22.716Z,8.88
2023-05-25T19:13:49.921Z,7.35
2023-05-25T19:16:17.196Z,8.73
2023-05-25T19:18:45.095Z,8.25
2023-05-25T19:21:12.290Z,6.93
2023-05-25T19:23:39.488Z,7.45
2023-05-25T19:26:06.726Z,6.97
2023-05-25T19:28:34.574Z,9.10
2023-05-25T19:31:01.760Z,6.85
2023-05-25T19:33:28.964Z,7.80
2023-05-25T19:35:56.174Z,7.07
2023-05-25T19:38:26.637Z,6.72
2023-05-25T19:40:56.153Z,8.40
2023-05-25T19:43:23.304Z,7.10
2023-05-25T19:45:53.457Z,6.72
2023-05-25T19:48:20.799Z,7.03
2023-05-25T19:50:47.968Z,6.82
2023-05-25T19:53:15.120Z,6.57
2023-05-25T19:55:42.364Z,6.00
2023-05-25T19:58:09.605Z,5.80
2023-05-25T20:00:36.785Z,6.10
2023-05-25T20:03:04.187Z,7.55
2023-05-25T20:05:31.747Z,6.28
2023-05-25T20:07:59.054Z,6.03
2023-05-25T20:10:26.264Z,5.82
2023-05-25T20:12:53.479Z,6.05
2023-05-25T20:15:20.784Z,8.43
2023-05-25T20:17:48.086Z,5.65
2023-05-25T20:20:15.716Z,5.53
2023-05-25T20:22:42.974Z,8.60
2023-05-25T20:25:10.434Z,9.50
2023-05-25T20:27:37.636Z,6.30
2023-05-25T20:30:04.972Z,10.82
2023-05-25T20:32:32.197Z,5.38
2023-05-25T20:34:59.416Z,10.10
2023-05-25T20:37:26.586Z,5.57
2023-05-25T20:39:53.691Z,7.75
2023-05-25T20:42:20.927Z,6.68
2023-05-25T20:44:48.099Z,7.32
2023-05-25T20:47:15.255Z,6.30
2023-05-25T20:49:42.483Z,5.97
2023-05-25T20:52:09.670Z,7.25
2023-05-25T20:54:39.358Z,7.65
2023-05-25T20:57:07.622Z,5.95
2023-05-25T20:59:34.783Z,5.68
2023-05-25T21:02:02.192Z,6.47
2023-05-25T21:04:31.720Z,6.18
2023-05-25T21:06:59.188Z,5.88
2023-05-25T21:09:26.397Z,7.25
2023-05-25T21:11:53.588Z,7.05
2023-05-25T21:14:21.071Z,5.22
2023-05-25T21:16:49.863Z,6.38
2023-05-25T21:19:17.233Z,5.75
2023-05-25T21:21:44.425Z,9.18
2023-05-25T21:24:11.636Z,6.93
2023-05-25T21:26:38.952Z,6.35
2023-05-25T21:29:07.618Z,6.00
2023-05-25T21:31:34.877Z,7.05
2023-05-25T21:34:02.157Z,5.43
2023-05-25T21:36:29.400Z,6.47
2023-05-25T21:38:56.612Z,5.60
2023-05-25T21:41:23.938Z,7.32
2023-05-25T21:43:51.189Z,5.30
2023-05-25T21:46:20.775Z,5.55
2023-05-25T21:48:47.895Z,5.28
2023-05-25T21:51:17.529Z,7.10
2023-05-25T21:53:44.710Z,5.50
2023-05-25T21:56:11.945Z,5.43
2023-05-25T21:58:39.090Z,5.10
2023-05-25T22:01:06.453Z,4.60
2023-05-25T22:03:33.760Z,5.80
2023-05-25T22:06:01.245Z,5.45
2023-05-25T22:08:28.441Z,4.90
2023-05-25T22:10:55.608Z,4.43
2023-05-25T22:13:22.810Z,4.38
2023-05-25T22:15:50.086Z,5.63
2023-05-25T22:18:17.275Z,4.50
2023-05-25T22:20:44.493Z,4.95
2023-05-25T22:23:13.012Z,4.95
2023-05-25T22:25:40.333Z,5.13
2023-05-25T22:28:07.629Z,4.85
2023-05-25T22:30:34.974Z,5.30
2023-05-25T22:33:02.292Z,5.80
2023-05-25T22:35:29.471Z,5.50
2023-05-25T22:37:56.717Z,4.88
2023-05-25T22:40:23.980Z,5.10
2023-05-25T22:42:51.223Z,5.60
2023-05-25T22:45:18.747Z,6.10
2023-05-25T22:47:45.983Z,5.15
2023-05-25T22:50:13.808Z,5.20
2023-05-25T22:52:44.159Z,7.53
2023-05-25T22:55:11.444Z,6.50
2023-05-25T22:57:39.266Z,5.97
2023-05-25T23:00:06.854Z,4.88
2023-05-25T23:02:34.098Z,4.35
2023-05-25T23:05:01.336Z,4.82
2023-05-25T23:07:28.997Z,4.57
2023-05-25T23:09:56.108Z,4.40
2023-05-25T23:12:23.304Z,4.80
2023-05-25T23:14:51.832Z,5.15
2023-05-25T23:17:19.006Z,4.68
2023-05-25T23:19:46.264Z,6.00
2023-05-25T23:22:13.493Z,4.25
2023-05-25T23:24:40.805Z,4.50
2023-05-25T23:27:08.706Z,4.07
2023-05-25T23:29:35.973Z,4.38
2023-05-25T23:32:03.269Z,4.85
2023-05-25T23:34:30.603Z,4.20
2023-05-25T23:36:58.170Z,4.70
2023-05-25T23:39:25.636Z,5.65
2023-05-25T23:41:52.997Z,5.22
2023-05-25T23:44:20.295Z,4.53
2023-05-25T23:46:47.470Z,4.68
2023-05-25T23:49:14.659Z,4.40
2023-05-25T23:51:41.881Z,4.75
2023-05-25T23:54:10.160Z,4.13
2023-05-25T23:56:37.316Z,4.15
2023-05-25T23:59:05.214Z,4.55
